HRYR/KGL METAR and TAF weather

Enter ICAO airport designator
Station Type Date Time Source
HRYR METAR 2023/02/05 14:00 UTC NOAA

HRYR 051400Z 19007KT 150V210 9999 SCT025 24/16 Q1016 NOSIG


Station Type Date Time Source
HRYR Decoded METAR 2023/02/05 14:00 UTC NOAA

Kigali, Rwanda (HRYR) 01-58S 030-07E 1497M
Feb 05, 2023 - 09:00 AM EST / 2023.02.05 1400 UTC
Wind: from the S (190 degrees) at 8 MPH (7 KT) (direction variable):0
Visibility: greater than 7 mile(s):0
Sky conditions: partly cloudy
Temperature: 75 F (24 C)
Dew Point: 60 F (16 C)
Relative Humidity: 60%
Pressure (altimeter): 30.00 in. Hg (1016 hPa)
ob: HRYR 051400Z 19007KT 150V210 9999 SCT025 24/16 Q1016 NOSIG
cycle: 14

Station Type Date Time Source
HRYR TAF 2023/02/05 12:39 UTC NOAA

TAF TAF COR HRYR 051130Z 0512/0618 15012KT 9999 FEW023CB BKN025
BECMG 0516/0519 04006KT SCT025
BECMG 0602/0605 32004KT
BECMG 0608/0611 14008KT BKN023
TEMPO 0613/0617 08012KT TSRA FEW023CB BKN025

Example: see airport list